Time;durP1;ratioP1;P1;durP2;ratioP2;P2;SDS_P1;SDS_P2;PMS_P1;PMS_P2;Temp;Humidity;BMP_temperature;BMP_pressure;BME280_temperature;BME280_humidity;BME280_pressure;Samples;Min_cycle;Max_cycle;Signal;HPM_P1;HPM_P2
2022/05/09 00:01:05;;;;;;;4.97;4.50;;;16.20;81.00;16.50;97107.00;;;;5018775;28;20194;-81
2022/05/09 00:03:32;;;;;;;5.43;4.47;;;16.10;80.80;16.50;97097.00;;;;5017368;28;20699;-81
2022/05/09 00:06:02;;;;;;;4.80;4.50;;;16.10;80.80;16.40;97104.00;;;;5022313;28;20702;-82
2022/05/09 00:08:29;;;;;;;4.37;4.03;;;16.10;80.70;16.40;97095.00;;;;5022892;28;20225;-82
2022/05/09 00:10:56;;;;;;;4.80;4.50;;;16.10;80.70;16.40;97100.00;;;;5021400;28;20198;-82
2022/05/09 00:13:23;;;;;;;5.93;4.70;;;16.10;80.70;16.40;97098.00;;;;5021581;28;20494;-82
2022/05/09 00:15:50;;;;;;;4.90;4.60;;;16.10;80.80;16.30;97095.00;;;;5021072;28;20855;-81
2022/05/09 00:18:19;;;;;;;4.63;4.33;;;16.00;80.70;16.30;97099.00;;;;5021919;28;20224;-81
2022/05/09 00:20:46;;;;;;;4.60;4.20;;;16.00;80.70;16.30;97090.00;;;;5031105;28;20194;-81
2022/05/09 00:23:15;;;;;;;4.63;4.23;;;16.00;80.70;16.30;97099.00;;;;5027434;28;20204;-81
2022/05/09 00:25:42;;;;;;;4.57;4.17;;;16.00;80.50;16.30;97098.00;;;;5014975;28;20272;-81
2022/05/09 00:28:09;;;;;;;4.80;4.30;;;15.90;80.30;16.20;97096.00;;;;5021624;28;20210;-81
2022/05/09 00:30:36;;;;;;;4.37;4.07;;;15.90;80.20;16.20;97097.00;;;;5020937;28;20192;-81
2022/05/09 00:33:04;;;;;;;4.87;4.47;;;15.90;80.20;16.20;97093.00;;;;5020975;28;20197;-81
2022/05/09 00:35:31;;;;;;;4.60;4.20;;;15.90;80.30;16.20;97096.00;;;;5018770;28;20213;-81
2022/05/09 00:37:58;;;;;;;5.13;4.70;;;15.80;80.20;16.20;97098.00;;;;5018996;28;20218;-81
2022/05/09 00:40:26;;;;;;;5.20;4.80;;;15.80;80.10;16.10;97099.00;;;;5018846;28;20289;-81
2022/05/09 00:42:55;;;;;;;4.63;4.33;;;15.80;80.10;16.10;97099.00;;;;5012279;28;20206;-82
2022/05/09 00:45:25;;;;;;;5.00;4.60;;;15.70;80.00;16.10;97098.00;;;;5011844;28;20317;-81
2022/05/09 00:47:52;;;;;;;4.90;4.50;;;15.70;80.00;16.10;97098.00;;;;5011787;28;20226;-80
2022/05/09 00:50:24;;;;;;;5.10;4.70;;;15.70;79.90;16.00;97101.00;;;;5011864;28;20198;-82
2022/05/09 00:52:59;;;;;;;5.20;4.70;;;15.70;79.80;16.00;97094.00;;;;5012172;28;20178;-82
2022/05/09 00:55:35;;;;;;;5.23;4.83;;;15.60;79.70;15.90;97095.00;;;;5012175;28;20617;-82
2022/05/09 00:58:10;;;;;;;4.43;3.60;;;15.60;79.70;15.90;97096.00;;;;4992269;28;20683;-80
2022/05/09 01:00:38;;;;;;;5.93;5.00;;;15.60;79.70;15.80;97094.00;;;;4997299;28;20650;-82
2022/05/09 01:03:13;;;;;;;4.83;4.43;;;15.50;79.60;15.80;97097.00;;;;4997646;28;20246;-81
2022/05/09 01:05:42;;;;;;;5.13;4.73;;;15.50;79.70;15.80;97102.00;;;;5009774;28;20710;-80
2022/05/09 01:08:10;;;;;;;5.87;5.37;;;15.40;79.70;15.70;97098.00;;;;5010674;28;20223;-81
2022/05/09 01:10:42;;;;;;;6.67;5.07;;;15.40;80.00;15.70;97098.00;;;;5000670;28;20229;-81
2022/05/09 01:13:13;;;;;;;6.93;4.30;;;15.40;80.30;15.60;97097.00;;;;4992669;28;20256;-81
2022/05/09 01:15:42;;;;;;;5.23;4.73;;;15.30;80.20;15.60;97102.00;;;;4992519;28;20671;-81
2022/05/09 01:18:14;;;;;;;5.30;4.83;;;15.30;80.20;15.50;97100.00;;;;5003397;28;20285;-81
2022/05/09 01:20:42;;;;;;;5.27;4.87;;;15.30;80.20;15.50;97096.00;;;;5007513;28;20194;-81
2022/05/09 01:23:11;;;;;;;4.97;4.67;;;15.20;80.20;15.50;97095.00;;;;5015297;28;20541;-81
2022/05/09 01:25:39;;;;;;;5.47;5.07;;;15.20;80.20;15.50;97089.00;;;;5000058;28;20215;-80
2022/05/09 01:28:09;;;;;;;5.43;5.03;;;15.20;80.20;15.50;97093.00;;;;5009777;28;20769;-80
2022/05/09 01:30:44;;;;;;;5.60;5.10;;;15.20;80.30;15.50;97092.00;;;;5012402;28;20652;-82
2022/05/09 01:33:20;;;;;;;6.30;5.47;;;15.20;80.50;15.50;97090.00;;;;5011804;28;20182;-80
2022/05/09 01:35:53;;;;;;;5.93;5.43;;;15.10;80.70;15.50;97092.00;;;;5011819;28;20298;-81
2022/05/09 01:38:29;;;;;;;5.67;5.27;;;15.10;80.90;15.50;97091.00;;;;5011836;28;20264;-81
2022/05/09 01:40:57;;;;;;;7.93;5.87;;;15.10;81.00;15.50;97093.00;;;;5008897;28;20197;-83
2022/05/09 01:43:44;;;;;;;6.20;5.70;;;15.10;81.00;15.50;97094.00;;;;5003121;28;20647;-82
2022/05/09 01:46:15;;;;;;;6.27;5.70;;;15.10;81.00;15.50;97097.00;;;;5005084;28;20210;-80
2022/05/09 01:51:28;;;;;;;5.80;5.40;;;15.00;81.30;15.50;97094.00;;;;5008726;28;20185;-81
2022/05/09 01:53:57;;;;;;;6.27;5.77;;;15.10;81.40;15.50;97090.00;;;;5008411;28;20296;-81
2022/05/09 01:56:29;;;;;;;6.57;5.97;;;15.10;81.50;15.50;97090.00;;;;5011818;28;20202;-80
2022/05/09 01:58:57;;;;;;;6.00;5.60;;;15.10;81.60;15.50;97084.00;;;;5011757;28;20214;-80
2022/05/09 02:01:28;;;;;;;5.70;5.20;;;15.20;81.70;15.50;97092.00;;;;5015806;28;20198;-82
2022/05/09 02:03:56;;;;;;;6.20;5.60;;;15.20;81.60;15.60;97090.00;;;;5017606;28;20193;-83
2022/05/09 02:06:24;;;;;;;5.23;4.73;;;15.20;81.60;15.60;97085.00;;;;5017441;28;20594;-82
2022/05/09 02:08:51;;;;;;;6.10;5.50;;;15.10;81.30;15.50;97086.00;;;;5013382;28;20718;-80
2022/05/09 02:11:19;;;;;;;5.50;5.10;;;15.10;81.30;15.50;97086.00;;;;5011364;28;20202;-80
2022/05/09 02:13:47;;;;;;;6.00;5.50;;;15.20;81.30;15.50;97095.00;;;;5012358;28;20198;-80
2022/05/09 02:16:14;;;;;;;5.60;5.17;;;15.10;81.30;15.60;97087.00;;;;5012331;28;20198;-81
2022/05/09 02:18:43;;;;;;;5.77;5.27;;;15.20;81.40;15.60;97098.00;;;;5011959;28;20222;-82
2022/05/09 02:21:10;;;;;;;5.83;5.30;;;15.20;81.40;15.60;97093.00;;;;5012132;28;20198;-81
2022/05/09 02:23:37;;;;;;;5.53;5.03;;;15.20;81.30;15.60;97088.00;;;;5011668;28;20206;-81
2022/05/09 02:26:04;;;;;;;6.00;5.10;;;15.10;81.30;15.50;97093.00;;;;5003773;28;20221;-81
2022/05/09 02:28:33;;;;;;;5.93;5.37;;;15.20;81.30;15.60;97089.00;;;;5012053;28;20218;-80
2022/05/09 02:31:00;;;;;;;6.03;5.53;;;15.10;81.10;15.50;97085.00;;;;5011910;28;20198;-82
2022/05/09 02:33:27;;;;;;;6.13;5.63;;;15.10;81.00;15.50;97090.00;;;;5011901;28;20565;-81
2022/05/09 02:35:54;;;;;;;5.13;4.67;;;15.10;81.00;15.50;97094.00;;;;5011887;28;20292;-81
2022/05/09 02:38:24;;;;;;;5.63;5.13;;;15.10;80.90;15.50;97091.00;;;;5037495;22;20719;-82
2022/05/09 02:40:52;;;;;;;5.03;4.63;;;15.10;80.80;15.50;97094.00;;;;5039850;28;20255;-82
2022/05/09 02:43:19;;;;;;;6.53;5.70;;;15.10;80.80;15.50;97090.00;;;;5035027;28;20204;-82
2022/05/09 02:45:48;;;;;;;5.53;5.00;;;15.10;80.80;15.40;97085.00;;;;5036219;28;20223;-82
2022/05/09 02:48:16;;;;;;;5.60;5.20;;;15.00;80.70;15.40;97092.00;;;;5035142;28;20221;-82
2022/05/09 02:50:43;;;;;;;5.37;4.97;;;15.00;80.70;15.40;97092.00;;;;5035273;28;20661;-82
2022/05/09 02:53:10;;;;;;;4.83;4.40;;;15.00;80.70;15.40;97089.00;;;;5035135;28;20196;-82
2022/05/09 02:55:38;;;;;;;5.80;5.30;;;15.00;80.70;15.30;97099.00;;;;5035480;28;20198;-82
2022/05/09 02:58:06;;;;;;;6.13;5.53;;;15.00;80.70;15.30;97097.00;;;;5033042;28;20220;-82
2022/05/09 03:00:33;;;;;;;6.00;5.40;;;15.00;80.80;15.30;97092.00;;;;5023661;28;20198;-82
2022/05/09 03:05:47;;;;;;;5.63;5.23;;;14.90;80.80;15.20;97093.00;;;;5026580;28;20216;-82
2022/05/09 03:08:18;;;;;;;6.60;5.23;;;14.90;80.80;15.20;97095.00;;;;5013706;28;20222;-82
2022/05/09 03:10:46;;;;;;;5.40;5.00;;;14.80;80.70;15.20;97089.00;;;;5031538;28;20259;-82
2022/05/09 03:13:15;;;;;;;5.77;5.37;;;14.80;80.70;15.20;97090.00;;;;5035958;28;20551;-82
2022/05/09 03:15:44;;;;;;;5.43;4.93;;;14.80;80.70;15.10;97095.00;;;;5028079;28;20553;-82
2022/05/09 03:18:15;;;;;;;5.53;5.13;;;14.80;80.70;15.10;97095.00;;;;5021703;28;20595;-82
2022/05/09 03:20:43;;;;;;;5.70;5.30;;;14.80;80.80;15.10;97093.00;;;;5030643;28;20205;-83
2022/05/09 03:23:11;;;;;;;5.60;5.10;;;14.70;80.60;15.10;97096.00;;;;5034992;28;20265;-82
2022/05/09 03:25:41;;;;;;;5.87;5.40;;;14.70;80.70;15.10;97100.00;;;;5044582;28;20224;-83
2022/05/09 03:28:12;;;;;;;5.23;4.83;;;14.70;80.70;15.10;97094.00;;;;5025252;28;20212;-82
2022/05/09 03:30:39;;;;;;;6.00;5.50;;;14.70;80.80;15.00;97099.00;;;;5026492;28;20563;-82
2022/05/09 03:33:07;;;;;;;5.60;5.20;;;14.70;80.90;15.00;97101.00;;;;5028212;28;20205;-82
2022/05/09 03:35:36;;;;;;;6.00;5.50;;;14.70;80.90;15.00;97101.00;;;;5036826;28;20201;-82
2022/05/09 03:38:03;;;;;;;5.73;5.33;;;14.60;81.00;15.00;97103.00;;;;5036429;28;20217;-82
2022/05/09 03:40:30;;;;;;;5.87;5.37;;;14.60;81.10;15.00;97099.00;;;;5036612;28;20197;-82
2022/05/09 03:42:59;;;;;;;6.00;5.60;;;14.60;81.20;15.00;97103.00;;;;5036009;28;20201;-82
2022/05/09 03:45:26;;;;;;;6.23;5.73;;;14.60;81.20;15.00;97099.00;;;;5035725;28;20193;-82
2022/05/09 03:47:54;;;;;;;5.93;5.43;;;14.60;81.20;15.00;97096.00;;;;5036029;28;20200;-82
2022/05/09 03:50:22;;;;;;;6.43;5.83;;;14.60;81.30;15.00;97097.00;;;;5035545;28;20208;-82
2022/05/09 03:52:50;;;;;;;6.30;5.73;;;14.60;81.30;15.00;97104.00;;;;5035393;28;20192;-82
2022/05/09 03:55:17;;;;;;;6.13;5.70;;;14.60;81.50;15.00;97106.00;;;;5026821;28;20206;-82
2022/05/09 03:57:52;;;;;;;6.53;5.93;;;14.60;81.60;15.00;97105.00;;;;5016161;28;20200;-82
2022/05/09 04:00:23;;;;;;;6.40;5.60;;;14.60;81.70;15.00;97098.00;;;;5034302;28;20195;-82
2022/05/09 04:02:50;;;;;;;6.30;5.70;;;14.60;81.80;15.10;97105.00;;;;5019648;28;20202;-82
2022/05/09 04:05:18;;;;;;;5.87;5.37;;;14.60;81.80;15.10;97098.00;;;;5022822;28;20201;-82
2022/05/09 04:07:48;;;;;;;6.03;5.53;;;14.60;82.00;15.10;97105.00;;;;5015044;28;20190;-82
2022/05/09 04:10:21;;;;;;;6.00;5.50;;;14.70;82.10;15.10;97111.00;;;;5015585;28;20198;-82
2022/05/09 04:12:48;;;;;;;6.47;5.83;;;14.60;82.20;15.20;97103.00;;;;5026370;28;20182;-82
2022/05/09 04:18:00;;;;;;;6.27;5.77;;;14.70;82.40;15.20;97113.00;;;;5018482;28;20298;-84
2022/05/09 04:20:29;;;;;;;5.90;5.40;;;14.80;82.70;15.30;97110.00;;;;5020838;28;20208;-81
2022/05/09 04:22:57;;;;;;;6.50;5.97;;;14.80;82.80;15.40;97110.00;;;;5017385;28;20672;-84
2022/05/09 04:25:25;;;;;;;7.10;6.50;;;14.80;83.10;15.40;97111.00;;;;5026870;28;20267;-84
2022/05/09 04:27:53;;;;;;;7.23;6.63;;;14.90;83.20;15.50;97113.00;;;;5031805;28;20197;-84
2022/05/09 04:30:20;;;;;;;6.90;6.30;;;14.90;83.40;15.50;97113.00;;;;5032973;28;20291;-84
2022/05/09 04:32:47;;;;;;;6.70;6.10;;;14.90;83.50;15.60;97123.00;;;;5032202;28;20193;-84
2022/05/09 04:35:17;;;;;;;6.73;6.20;;;15.00;83.60;15.70;97121.00;;;;5031248;28;20194;-85
2022/05/09 04:37:47;;;;;;;6.53;6.03;;;15.10;83.80;15.80;97132.00;;;;5019400;28;20194;-84
2022/05/09 04:40:15;;;;;;;6.67;6.17;;;15.10;83.80;15.80;97132.00;;;;5022150;28;20202;-84
2022/05/09 04:42:44;;;;;;;6.13;5.73;;;15.20;83.90;15.90;97126.00;;;;5024859;28;20774;-84
2022/05/09 04:45:13;;;;;;;6.57;6.07;;;15.30;84.00;16.00;97134.00;;;;5033488;28;20190;-83
2022/05/09 04:47:42;;;;;;;6.50;5.90;;;15.30;84.10;16.10;97140.00;;;;5032733;28;20232;-84
2022/05/09 04:50:13;;;;;;;7.07;6.33;;;15.40;84.20;16.10;97130.00;;;;5031688;28;20228;-84
2022/05/09 04:52:40;;;;;;;6.37;5.87;;;15.50;84.40;16.20;97139.00;;;;5028274;28;20199;-84
2022/05/09 04:55:09;;;;;;;6.90;6.40;;;15.50;84.40;16.30;97136.00;;;;5020665;28;20686;-84
2022/05/09 04:57:36;;;;;;;6.53;6.03;;;15.60;84.50;16.40;97139.00;;;;5031256;28;20205;-84
2022/05/09 05:00:08;;;;;;;6.53;6.03;;;15.60;84.50;16.50;97133.00;;;;5031360;28;20201;-84
2022/05/09 05:02:36;;;;;;;6.53;6.03;;;15.80;84.70;16.60;97137.00;;;;5031491;28;20650;-84
2022/05/09 05:05:03;;;;;;;7.33;6.73;;;15.90;84.80;16.70;97142.00;;;;5031375;28;20284;-84
2022/05/09 05:07:30;;;;;;;7.47;6.77;;;16.00;84.90;16.80;97138.00;;;;5034360;28;20590;-84
2022/05/09 05:09:58;;;;;;;6.63;6.13;;;16.00;84.90;16.90;97149.00;;;;5031310;28;20222;-84
2022/05/09 05:12:25;;;;;;;6.87;6.33;;;16.10;85.00;17.00;97146.00;;;;5016084;28;20198;-84
2022/05/09 05:14:52;;;;;;;6.87;6.27;;;16.20;85.10;17.10;97140.00;;;;5032330;28;20260;-84
2022/05/09 05:17:20;;;;;;;7.23;6.63;;;16.30;85.00;17.20;97151.00;;;;5033632;28;20714;-84
2022/05/09 05:19:48;;;;;;;6.93;6.43;;;16.40;85.20;17.30;97148.00;;;;5038244;28;20223;-84
2022/05/09 05:22:17;;;;;;;7.13;6.63;;;16.50;85.20;17.40;97160.00;;;;5024539;28;20329;-84
2022/05/09 05:24:47;;;;;;;6.40;5.90;;;16.60;85.00;17.60;97148.00;;;;5020101;28;20587;-84
2022/05/09 05:27:14;;;;;;;6.97;6.37;;;16.70;85.00;17.70;97154.00;;;;5025142;28;20221;-84
2022/05/09 05:29:42;;;;;;;7.47;6.87;;;16.80;85.00;17.80;97156.00;;;;5028949;28;20216;-84
2022/05/09 05:32:17;;;;;;;6.73;6.23;;;16.90;85.10;17.90;97162.00;;;;5029974;28;20193;-86
2022/05/09 05:34:46;;;;;;;7.50;6.80;;;17.10;84.80;18.00;97161.00;;;;5015754;28;20252;-85
2022/05/09 05:37:13;;;;;;;6.87;6.37;;;17.20;84.70;18.10;97162.00;;;;5020629;28;20193;-85
2022/05/09 05:39:41;;;;;;;7.77;6.80;;;17.30;84.60;18.20;97169.00;;;;5021259;28;20260;-85
2022/05/09 05:42:09;;;;;;;6.27;5.70;;;17.40;84.40;18.30;97170.00;;;;5026748;28;20201;-85
2022/05/09 05:44:38;;;;;;;7.30;6.60;;;17.50;84.20;18.40;97164.00;;;;5019936;28;20828;-85
2022/05/09 05:47:07;;;;;;;7.07;6.47;;;17.60;84.10;18.50;97175.00;;;;5027005;28;20549;-85
2022/05/09 05:49:36;;;;;;;7.03;6.53;;;17.70;83.80;18.60;97168.00;;;;5021924;28;20225;-86
2022/05/09 05:52:06;;;;;;;6.63;6.23;;;17.70;83.60;18.70;97178.00;;;;5028986;28;20674;-86
2022/05/09 05:54:36;;;;;;;6.60;6.03;;;17.80;83.30;18.70;97176.00;;;;5030175;28;20288;-85
2022/05/09 05:57:06;;;;;;;6.47;5.97;;;17.90;83.10;18.80;97173.00;;;;5030867;28;20248;-85
2022/05/09 05:59:33;;;;;;;6.07;5.57;;;18.00;83.00;18.80;97178.00;;;;5029661;28;20607;-85
2022/05/09 06:02:00;;;;;;;6.57;5.97;;;18.00;82.70;18.90;97178.00;;;;5020134;28;20224;-85
2022/05/09 06:04:27;;;;;;;6.57;5.97;;;18.10;82.30;18.90;97179.00;;;;5028790;28;20204;-86
2022/05/09 06:06:55;;;;;;;6.80;6.13;;;18.10;82.00;18.90;97183.00;;;;5027471;28;20308;-85
2022/05/09 06:09:23;;;;;;;6.30;5.80;;;18.20;81.70;19.00;97188.00;;;;5022758;28;20222;-86
2022/05/09 06:11:50;;;;;;;6.93;5.90;;;18.20;81.30;19.00;97187.00;;;;5023916;28;20193;-86
2022/05/09 06:14:17;;;;;;;6.10;5.60;;;18.30;81.40;19.00;97193.00;;;;5025191;28;20193;-85
2022/05/09 06:16:45;;;;;;;6.47;5.87;;;18.30;81.40;19.00;97191.00;;;;5025162;28;20681;-85
2022/05/09 06:19:12;;;;;;;7.63;5.83;;;18.30;81.10;19.00;97188.00;;;;5019695;28;20241;-85
2022/05/09 06:21:39;;;;;;;6.10;5.63;;;18.40;81.00;19.10;97196.00;;;;5027698;28;20194;-86
2022/05/09 06:24:08;;;;;;;6.33;5.83;;;18.30;80.90;19.10;97196.00;;;;5031691;28;20199;-84
2022/05/09 06:26:37;;;;;;;5.90;5.50;;;18.40;80.70;19.10;97192.00;;;;5025496;28;20660;-85
2022/05/09 06:29:06;;;;;;;6.70;6.20;;;18.40;80.40;19.10;97197.00;;;;5026100;28;20218;-85
2022/05/09 06:31:36;;;;;;;5.97;5.47;;;18.50;80.40;19.10;97198.00;;;;5024045;28;20198;-84
2022/05/09 06:34:04;;;;;;;6.03;5.63;;;18.50;80.40;19.20;97207.00;;;;5029400;28;20197;-85
2022/05/09 06:36:34;;;;;;;6.17;5.77;;;18.50;80.50;19.20;97206.00;;;;5017149;28;20759;-85
2022/05/09 06:39:02;;;;;;;7.10;6.40;;;18.60;80.30;19.20;97207.00;;;;5025549;28;20710;-85
2022/05/09 06:41:29;;;;;;;6.57;6.00;;;18.60;80.50;19.30;97209.00;;;;5015417;28;20664;-86
2022/05/09 06:43:58;;;;;;;6.23;5.73;;;18.60;80.30;19.30;97204.00;;;;5034699;28;20200;-85
2022/05/09 06:46:25;;;;;;;7.33;5.37;;;18.60;80.00;19.30;97210.00;;;;5033917;28;20600;-86
2022/05/09 06:48:52;;;;;;;5.67;5.27;;;18.70;79.90;19.30;97203.00;;;;5014497;28;20232;-86
2022/05/09 06:51:22;;;;;;;5.93;5.40;;;18.70;80.00;19.40;97219.00;;;;5026747;28;20285;-86
2022/05/09 06:53:51;;;;;;;6.10;5.70;;;18.70;80.20;19.40;97218.00;;;;5021990;28;20194;-85
2022/05/09 06:56:18;;;;;;;6.00;5.60;;;18.80;80.40;19.50;97222.00;;;;5024838;28;20606;-85
2022/05/09 06:58:45;;;;;;;6.10;5.50;;;18.80;80.30;19.50;97213.00;;;;5025950;28;20232;-85
2022/05/09 07:01:16;;;;;;;5.47;5.07;;;18.90;80.60;19.60;97222.00;;;;5020521;28;20679;-85
2022/05/09 07:03:43;;;;;;;6.47;5.60;;;18.90;80.30;19.70;97224.00;;;;5022906;28;20199;-85
2022/05/09 07:06:11;;;;;;;6.07;5.50;;;19.00;80.20;19.70;97221.00;;;;5024072;28;20682;-86
2022/05/09 07:08:39;;;;;;;5.97;5.50;;;19.10;80.40;19.90;97211.00;;;;5023236;28;20219;-85
2022/05/09 07:11:07;;;;;;;5.67;5.27;;;19.20;80.40;19.90;97224.00;;;;5034263;28;20208;-85
2022/05/09 07:13:34;;;;;;;6.00;5.50;;;19.30;80.30;20.10;97221.00;;;;5030664;28;20288;-86
2022/05/09 07:16:03;;;;;;;6.20;5.60;;;19.40;80.50;20.30;97235.00;;;;5029590;28;20202;-85
2022/05/09 07:18:31;;;;;;;5.87;5.47;;;19.50;80.60;20.50;97232.00;;;;5030620;28;20220;-86
2022/05/09 07:20:58;;;;;;;6.27;5.20;;;19.70;80.80;20.70;97225.00;;;;5029201;28;20694;-86
2022/05/09 07:23:25;;;;;;;5.67;5.17;;;19.80;80.70;20.90;97229.00;;;;5023609;28;20212;-86
2022/05/09 07:25:55;;;;;;;7.23;5.20;;;20.00;80.60;21.20;97227.00;;;;5025865;28;20233;-86
2022/05/09 07:28:22;;;;;;;5.60;5.20;;;20.20;80.40;21.40;97225.00;;;;5018357;28;20806;-88
2022/05/09 07:30:50;;;;;;;5.57;5.17;;;20.40;80.10;21.70;97233.00;;;;5032520;28;20197;-87
2022/05/09 07:33:20;;;;;;;5.60;5.10;;;20.60;79.50;21.90;97225.00;;;;5031991;28;20792;-85
2022/05/09 07:35:49;;;;;;;5.30;4.90;;;20.80;79.10;22.10;97234.00;;;;5032177;28;20204;-86
2022/05/09 07:38:17;;;;;;;5.67;4.77;;;21.00;78.80;22.30;97239.00;;;;5032847;28;20233;-86
2022/05/09 07:40:47;;;;;;;4.93;4.53;;;21.20;78.60;22.60;97233.00;;;;5027890;28;20570;-86
2022/05/09 07:43:17;;;;;;;5.03;4.63;;;21.40;78.00;22.80;97241.00;;;;5024243;28;20197;-86
2022/05/09 07:45:47;;;;;;;5.67;5.10;;;21.60;77.90;23.00;97238.00;;;;5020778;28;20853;-86
2022/05/09 07:48:16;;;;;;;5.27;4.87;;;21.80;77.60;23.20;97233.00;;;;5024859;28;20232;-87
2022/05/09 07:50:43;;;;;;;4.83;4.43;;;21.90;77.20;23.40;97240.00;;;;5020198;28;20198;-87
2022/05/09 07:53:15;;;;;;;5.13;4.73;;;22.10;77.00;23.60;97241.00;;;;5032691;28;20198;-86
2022/05/09 07:55:43;;;;;;;4.93;4.50;;;22.30;76.20;23.90;97240.00;;;;5030771;28;20202;-87
2022/05/09 07:58:14;;;;;;;4.77;4.47;;;22.50;76.10;24.10;97237.00;;;;5031338;28;20226;-86
2022/05/09 08:00:45;;;;;;;4.47;4.17;;;22.60;75.70;24.30;97242.00;;;;5028120;28;20670;-87
2022/05/09 08:03:17;;;;;;;4.73;4.33;;;22.90;75.60;24.60;97235.00;;;;5026423;28;20201;-86
2022/05/09 08:05:44;;;;;;;4.57;4.20;;;23.00;74.60;24.80;97233.00;;;;5025480;28;20193;-86
2022/05/09 08:08:14;;;;;;;5.13;4.63;;;23.20;74.60;25.10;97242.00;;;;5023131;28;20612;-86
2022/05/09 08:10:42;;;;;;;3.93;3.70;;;23.40;73.80;25.30;97248.00;;;;5023707;28;20657;-87
2022/05/09 08:13:11;;;;;;;5.30;4.80;;;23.60;73.50;25.60;97247.00;;;;5019155;28;20256;-87
2022/05/09 08:15:38;;;;;;;5.30;4.80;;;23.80;73.10;25.90;97252.00;;;;5023711;28;20203;-86
2022/05/09 08:18:07;;;;;;;4.67;4.37;;;24.00;72.70;26.20;97253.00;;;;5021247;28;20710;-86
2022/05/09 08:20:37;;;;;;;5.00;4.60;;;24.20;72.40;26.50;97249.00;;;;5014201;28;20264;-86
2022/05/09 08:23:09;;;;;;;4.53;4.23;;;24.40;71.80;26.70;97247.00;;;;5032260;28;20193;-86
2022/05/09 08:25:42;;;;;;;4.57;4.17;;;24.60;71.40;27.00;97243.00;;;;5029908;28;20201;-86
2022/05/09 08:28:09;;;;;;;4.67;4.27;;;24.80;70.60;27.30;97253.00;;;;5016476;28;20671;-86
2022/05/09 08:30:38;;;;;;;4.50;4.10;;;25.00;70.50;27.50;97248.00;;;;5021192;28;20563;-86
2022/05/09 08:33:10;;;;;;;4.30;4.00;;;25.20;69.80;27.90;97259.00;;;;5022290;28;20198;-86
2022/05/09 08:35:37;;;;;;;4.50;4.10;;;25.40;70.00;28.20;97261.00;;;;5030017;28;20197;-87
2022/05/09 08:40:41;;;;;;;4.37;3.97;;;25.90;68.70;29.10;97265.00;;;;5069612;28;20223;-80
2022/05/09 08:43:24;;;;;;;3.85;3.53;;;26.20;68.80;29.50;97266.00;;;;5075317;28;20196;-80
2022/05/09 08:46:05;;;;;;;4.57;3.60;;;26.60;68.10;29.70;97265.00;;;;5066967;28;20210;-80
2022/05/09 08:48:51;;;;;;;4.63;4.30;;;26.80;67.30;29.90;97271.00;;;;5061834;28;20224;-82
2022/05/09 08:51:36;;;;;;;4.22;3.83;;;27.20;66.60;30.30;97269.00;;;;5055572;28;20201;-80
2022/05/09 08:54:09;;;;;;;3.72;3.53;;;27.60;66.00;30.60;97266.00;;;;5047100;28;20260;-79
2022/05/09 08:56:39;;;;;;;3.95;3.65;;;28.00;65.60;30.80;97270.00;;;;5048633;28;20375;-80
2022/05/09 08:59:13;;;;;;;4.38;4.05;;;28.30;65.70;31.10;97276.00;;;;5057749;28;20217;-79
2022/05/09 09:01:48;;;;;;;3.97;3.67;;;28.70;64.80;31.40;97285.00;;;;5058079;28;20204;-79
2022/05/09 09:04:23;;;;;;;3.50;3.20;;;29.10;63.50;31.60;97281.00;;;;5058621;28;20197;-79
2022/05/09 09:07:06;;;;;;;3.60;3.40;;;29.40;61.80;31.60;97280.00;;;;5052459;28;20201;-80
2022/05/09 09:10:01;;;;;;;4.10;3.78;;;29.60;59.70;31.80;97288.00;;;;5042037;28;20252;-80
2022/05/09 09:12:43;;;;;;;3.80;3.50;;;29.90;59.10;31.90;97289.00;;;;5047414;28;20201;-79
2022/05/09 09:15:25;;;;;;;3.47;3.28;;;30.20;58.90;32.10;97292.00;;;;5038244;28;20212;-79
2022/05/09 09:18:11;;;;;;;3.85;3.55;;;30.50;59.20;32.20;97290.00;;;;5052069;28;20665;-80
2022/05/09 09:20:55;;;;;;;3.47;3.20;;;30.70;57.10;32.20;97289.00;;;;5050725;28;20199;-79
2022/05/09 09:23:48;;;;;;;3.60;3.40;;;30.90;56.90;32.40;97288.00;;;;5048348;28;20197;-79
2022/05/09 09:26:34;;;;;;;3.30;3.10;;;31.20;56.50;32.70;97291.00;;;;5058719;28;20201;-79
2022/05/09 09:29:09;;;;;;;3.72;2.97;;;31.50;57.10;33.00;97288.00;;;;5042624;28;20221;-79
2022/05/09 09:31:42;;;;;;;3.10;2.90;;;31.80;56.90;33.30;97288.00;;;;5041631;28;20193;-80
2022/05/09 09:34:24;;;;;;;3.38;3.08;;;32.20;55.90;33.50;97287.00;;;;5040611;28;20197;-80
2022/05/09 09:37:01;;;;;;;3.72;3.53;;;32.50;54.40;33.80;97292.00;;;;5040204;28;20633;-79
2022/05/09 09:39:28;;;;;;;3.53;3.22;;;32.80;54.00;34.00;97292.00;;;;5049204;28;20231;-79
2022/05/09 09:41:56;;;;;;;3.65;3.33;;;33.10;54.60;34.10;97292.00;;;;5042186;28;20284;-79
2022/05/09 09:44:27;;;;;;;3.17;2.97;;;33.40;54.20;34.30;97291.00;;;;5045878;28;20201;-80
2022/05/09 09:47:09;;;;;;;3.22;2.92;;;33.70;53.60;34.50;97290.00;;;;5047089;28;20192;-80
2022/05/09 09:49:40;;;;;;;3.10;2.85;;;33.90;51.80;34.70;97288.00;;;;5054703;28;20212;-80
2022/05/09 09:52:25;;;;;;;3.42;3.22;;;34.20;53.20;34.80;97290.00;;;;5058974;28;20200;-80
2022/05/09 09:54:58;;;;;;;3.25;3.08;;;34.40;51.10;35.00;97298.00;;;;5064012;28;20192;-80
2022/05/09 09:57:32;;;;;;;3.58;3.38;;;34.60;50.90;35.00;97293.00;;;;5066818;28;20197;-79
2022/05/09 10:00:19;;;;;;;2.90;2.67;;;34.70;50.30;35.00;97294.00;;;;5051381;28;20312;-79
2022/05/09 10:02:47;;;;;;;3.30;3.05;;;34.90;49.40;35.10;97284.00;;;;5055724;28;20218;-80
2022/05/09 10:05:18;;;;;;;3.03;2.90;;;35.00;50.80;35.00;97289.00;;;;5056072;28;20723;-79
2022/05/09 10:07:47;;;;;;;2.85;2.75;;;34.90;49.90;34.80;97283.00;;;;5055884;28;20559;-79
2022/05/09 10:10:18;;;;;;;3.03;2.83;;;34.80;49.10;34.70;97283.00;;;;5052397;28;20683;-79
2022/05/09 10:12:49;;;;;;;3.10;2.83;;;34.70;49.00;34.60;97289.00;;;;5053650;28;20203;-81
2022/05/09 10:15:34;;;;;;;3.13;2.90;;;34.70;49.00;34.40;97289.00;;;;5041661;28;20234;-79
2022/05/09 10:18:21;;;;;;;3.72;3.40;;;34.50;47.00;34.10;97284.00;;;;5056191;28;20200;-80
2022/05/09 10:20:50;;;;;;;3.15;2.95;;;34.30;47.40;33.80;97283.00;;;;5057400;28;20192;-79
2022/05/09 10:26:22;;;;;;;3.90;3.63;;;33.70;47.80;33.40;97278.00;;;;5057417;28;20250;-79
2022/05/09 10:28:54;;;;;;;3.35;3.15;;;33.50;48.30;33.10;97277.00;;;;5056940;28;20224;-80
2022/05/09 10:31:29;;;;;;;3.22;3.03;;;33.20;48.40;32.80;97274.00;;;;5055411;28;20197;-79
2022/05/09 10:34:04;;;;;;;3.33;3.03;;;32.90;48.80;32.70;97281.00;;;;5056382;28;20189;-79
2022/05/09 10:36:40;;;;;;;2.85;2.65;;;32.70;49.10;32.50;97265.00;;;;5057298;28;20572;-79
2022/05/09 10:39:14;;;;;;;3.88;2.92;;;32.60;49.60;32.50;97267.00;;;;5057310;28;20224;-79
2022/05/09 10:41:46;;;;;;;3.75;3.25;;;32.50;50.20;32.40;97265.00;;;;5057700;28;21540;-80
2022/05/09 10:44:19;;;;;;;2.97;2.78;;;32.50;50.40;32.30;97271.00;;;;5061058;28;20197;-79
2022/05/09 10:46:52;;;;;;;3.35;3.15;;;32.30;50.10;32.30;97260.00;;;;5058271;28;20196;-80
2022/05/09 10:49:35;;;;;;;3.25;3.00;;;32.20;49.40;32.10;97249.00;;;;5056100;28;20217;-79
2022/05/09 10:52:25;;;;;;;3.22;2.97;;;32.10;48.60;31.90;97254.00;;;;5055252;28;20212;-79
2022/05/09 10:55:01;;;;;;;3.60;3.40;;;31.80;48.50;31.70;97241.00;;;;5055745;28;20192;-80
2022/05/09 10:57:39;;;;;;;3.70;3.40;;;31.60;49.60;31.50;97246.00;;;;5056115;28;20193;-79
2022/05/09 11:00:11;;;;;;;3.70;3.50;;;31.40;49.40;31.20;97238.00;;;;5056045;28;20212;-80
2022/05/09 11:02:53;;;;;;;3.70;3.40;;;31.10;49.50;31.00;97234.00;;;;5055406;28;20191;-79
2022/05/09 11:05:24;;;;;;;3.63;3.35;;;30.80;49.70;30.80;97234.00;;;;5054241;28;20193;-79
2022/05/09 11:08:04;;;;;;;3.67;3.42;;;30.50;50.40;30.60;97237.00;;;;5054593;28;20222;-79
2022/05/09 11:10:41;;;;;;;3.88;3.45;;;30.30;49.60;30.40;97234.00;;;;5053422;28;20561;-80
2022/05/09 11:13:27;;;;;;;3.75;3.45;;;30.00;49.80;30.20;97233.00;;;;5054031;28;20223;-81
2022/05/09 11:16:14;;;;;;;4.57;2.85;;;29.70;50.00;30.00;97228.00;;;;5054514;28;20193;-80
2022/05/09 11:19:24;;;;;;;3.95;3.65;;;29.50;50.50;29.80;97225.00;;;;5055116;28;20224;-80
2022/05/09 11:22:00;;;;;;;3.80;3.30;;;29.30;49.10;29.70;97217.00;;;;5060049;28;20224;-79
2022/05/09 11:24:58;;;;;;;3.78;3.47;;;29.10;51.00;29.50;97212.00;;;;5060534;28;20195;-80